createdAt,value
2023-01-19T00:01:46.223Z,99960.75
2023-01-19T00:04:15.112Z,99958.98
2023-01-19T00:06:44.210Z,99966.98
2023-01-19T00:09:13.313Z,99972.95
2023-01-19T00:11:42.201Z,99969.60
2023-01-19T00:14:11.291Z,99967.98
2023-01-19T00:16:40.184Z,99964.63
2023-01-19T00:19:09.592Z,99964.02
2023-01-19T00:21:38.401Z,99971.16
2023-01-19T00:24:07.669Z,99979.00
2023-01-19T00:26:40.795Z,99975.11
2023-01-19T00:29:12.249Z,99974.67
2023-01-19T00:31:41.707Z,99968.13
2023-01-19T00:34:10.528Z,99970.02
2023-01-19T00:36:39.511Z,99971.45
2023-01-19T00:39:08.908Z,99975.15
2023-01-19T00:41:56.028Z,99972.83
2023-01-19T00:44:25.031Z,99977.55
2023-01-19T00:46:53.911Z,99975.89
2023-01-19T00:49:22.725Z,99975.31
2023-01-19T00:51:51.705Z,99970.09
2023-01-19T00:54:20.698Z,99963.74
2023-01-19T00:56:49.701Z,99971.55
2023-01-19T00:59:18.688Z,99970.52
2023-01-19T01:01:47.793Z,99966.71
2023-01-19T01:04:16.876Z,99962.05
2023-01-19T01:06:45.872Z,99955.55
2023-01-19T01:09:14.988Z,99948.92
2023-01-19T01:11:44.373Z,99941.73
2023-01-19T01:14:14.182Z,99943.90
2023-01-19T01:16:43.344Z,99949.81
2023-01-19T01:19:12.500Z,99960.95
2023-01-19T01:21:41.778Z,99960.77
2023-01-19T01:24:11.184Z,99960.39
2023-01-19T01:26:40.285Z,99957.02
2023-01-19T01:29:09.075Z,99945.46
2023-01-19T01:31:38.201Z,99940.77
2023-01-19T01:34:07.765Z,99936.46
2023-01-19T01:36:36.672Z,99937.33
2023-01-19T01:39:05.669Z,99938.15
2023-01-19T01:41:35.164Z,99928.88
2023-01-19T01:44:08.464Z,99925.08
2023-01-19T01:46:37.343Z,99925.62
2023-01-19T01:49:13.789Z,99931.02
2023-01-19T01:51:51.953Z,99934.98
2023-01-19T01:54:32.910Z,99925.40
2023-01-19T01:57:12.649Z,99921.06
2023-01-19T01:59:48.085Z,99916.52
2023-01-19T02:02:42.127Z,99916.58
2023-01-19T02:05:28.514Z,99914.72
2023-01-19T02:08:34.246Z,99907.90
2023-01-19T02:11:22.789Z,99902.88
2023-01-19T02:13:52.040Z,99901.58
2023-01-19T02:16:21.103Z,99896.52
2023-01-19T02:18:50.090Z,99893.86
2023-01-19T02:21:31.150Z,99890.58
2023-01-19T02:24:03.352Z,99894.40
2023-01-19T02:26:39.577Z,99884.08
2023-01-19T02:29:21.111Z,99886.16
2023-01-19T02:31:50.269Z,99891.04
2023-01-19T02:34:21.824Z,99897.09
2023-01-19T02:36:59.325Z,99904.92
2023-01-19T02:39:45.677Z,99901.09
2023-01-19T02:42:41.074Z,99904.40
2023-01-19T02:45:13.005Z,99906.13
2023-01-19T02:47:51.619Z,99900.55
2023-01-19T02:50:50.199Z,99896.09
2023-01-19T02:53:33.012Z,99885.86
2023-01-19T02:56:17.066Z,99875.83
2023-01-19T02:59:00.806Z,99871.14
2023-01-19T03:02:22.201Z,99873.88
2023-01-19T03:05:37.032Z,99869.92
2023-01-19T03:08:31.198Z,99861.31
2023-01-19T03:11:10.502Z,99869.40
2023-01-19T03:13:48.424Z,99870.64
2023-01-19T03:16:48.841Z,99864.02
2023-01-19T03:19:27.474Z,99858.83
2023-01-19T03:22:06.157Z,99861.03
2023-01-19T03:24:40.684Z,99849.58
2023-01-19T03:27:27.553Z,99837.76
2023-01-19T03:30:23.547Z,99840.73
2023-01-19T03:33:07.543Z,99860.94
2023-01-19T03:35:42.156Z,99846.39
2023-01-19T03:38:17.515Z,99840.50
2023-01-19T03:40:47.931Z,99839.46
2023-01-19T03:43:18.168Z,99843.89
2023-01-19T03:45:48.362Z,99849.27
2023-01-19T03:48:18.056Z,99862.22
2023-01-19T03:50:47.047Z,99876.69
2023-01-19T03:53:18.193Z,99863.23
2023-01-19T03:55:48.717Z,99856.89
2023-01-19T03:58:18.047Z,99845.30
2023-01-19T04:00:46.917Z,99847.70
2023-01-19T04:03:18.648Z,99853.73
2023-01-19T04:05:47.871Z,99848.51
2023-01-19T04:08:16.659Z,99846.07
2023-01-19T04:10:45.667Z,99843.15
2023-01-19T04:13:14.538Z,99845.69
2023-01-19T04:15:43.445Z,99844.58
2023-01-19T04:18:12.530Z,99843.56
2023-01-19T04:20:41.651Z,99839.98
2023-01-19T04:23:11.151Z,99840.13
2023-01-19T04:25:40.889Z,99847.87
2023-01-19T04:28:09.845Z,99844.80
2023-01-19T04:30:39.245Z,99840.80
2023-01-19T04:33:08.258Z,99830.61
2023-01-19T04:35:37.227Z,99828.07
2023-01-19T04:38:06.121Z,99836.13
2023-01-19T04:40:35.210Z,99838.90
2023-01-19T04:43:04.644Z,99834.41
2023-01-19T04:45:33.725Z,99831.05
2023-01-19T04:48:04.447Z,99834.57
2023-01-19T04:50:33.879Z,99827.73
2023-01-19T04:53:02.865Z,99824.95
2023-01-19T04:55:32.157Z,99824.02
2023-01-19T04:58:01.608Z,99829.77
2023-01-19T05:00:30.765Z,99845.73
2023-01-19T05:03:00.135Z,99846.56
2023-01-19T05:05:29.973Z,99853.87
2023-01-19T05:07:58.856Z,99845.33
2023-01-19T05:10:28.290Z,99843.44
2023-01-19T05:12:58.115Z,99844.41
2023-01-19T05:15:27.477Z,99847.09
2023-01-19T05:17:58.343Z,99844.42
2023-01-19T05:20:27.322Z,99844.41
2023-01-19T05:22:56.361Z,99841.38
2023-01-19T05:25:25.346Z,99842.09
2023-01-19T05:27:54.146Z,99839.88
2023-01-19T05:30:23.064Z,99830.39
2023-01-19T05:32:51.759Z,99833.21
2023-01-19T05:35:31.325Z,99835.36
2023-01-19T05:38:04.846Z,99838.92
2023-01-19T05:40:33.914Z,99843.14
2023-01-19T05:43:05.402Z,99838.11
2023-01-19T05:45:34.789Z,99836.02
2023-01-19T05:48:03.874Z,99841.86
2023-01-19T05:50:34.474Z,99849.38
2023-01-19T05:53:03.752Z,99853.70
2023-01-19T05:55:33.827Z,99853.52
2023-01-19T05:58:02.607Z,99857.44
2023-01-19T06:00:31.719Z,99857.73
2023-01-19T06:03:02.844Z,99861.70
2023-01-19T06:05:31.893Z,99861.66
2023-01-19T06:08:00.739Z,99858.41
2023-01-19T06:10:30.012Z,99857.77
2023-01-19T06:12:59.227Z,99856.08
2023-01-19T06:15:28.748Z,99855.95
2023-01-19T06:17:57.530Z,99855.67
2023-01-19T06:20:26.322Z,99855.34
2023-01-19T06:22:58.064Z,99859.47
2023-01-19T06:25:26.961Z,99854.05
2023-01-19T06:27:56.172Z,99856.65
2023-01-19T06:30:25.053Z,99859.31
2023-01-19T06:32:54.266Z,99852.15
2023-01-19T06:35:23.158Z,99841.14
2023-01-19T06:37:53.524Z,99837.44
2023-01-19T06:40:22.434Z,99834.42
2023-01-19T06:42:51.256Z,99855.92
2023-01-19T06:45:19.962Z,99865.54
2023-01-19T06:47:48.946Z,99870.46
2023-01-19T06:50:17.867Z,99866.13
2023-01-19T06:52:49.822Z,99864.78
2023-01-19T06:55:19.173Z,99858.45
2023-01-19T06:57:48.638Z,99838.77
2023-01-19T07:00:18.818Z,99851.15
2023-01-19T07:02:47.963Z,99850.14
2023-01-19T07:05:17.937Z,99849.00
2023-01-19T07:07:56.006Z,99846.83
2023-01-19T07:10:25.415Z,99846.27
2023-01-19T07:12:57.539Z,99841.36
2023-01-19T07:15:26.704Z,99843.95
2023-01-19T07:17:59.292Z,99845.08
2023-01-19T07:20:28.213Z,99848.80
2023-01-19T07:22:57.951Z,99847.80
2023-01-19T07:25:27.266Z,99854.02
2023-01-19T07:28:00.330Z,99856.38
2023-01-19T07:30:28.973Z,99856.94
2023-01-19T07:32:58.779Z,99862.02
2023-01-19T07:35:29.845Z,99869.08
2023-01-19T07:37:59.549Z,99870.09
2023-01-19T07:40:28.584Z,99872.89
2023-01-19T07:42:57.317Z,99863.68
2023-01-19T07:45:28.014Z,99857.12
2023-01-19T07:47:56.937Z,99851.79
2023-01-19T07:50:27.789Z,99852.89
2023-01-19T07:52:56.829Z,99851.56
2023-01-19T07:55:25.689Z,99858.06
2023-01-19T07:57:54.483Z,99858.02
2023-01-19T08:00:25.502Z,99865.77
2023-01-19T08:03:01.327Z,99871.70
2023-01-19T08:05:30.456Z,99874.18
2023-01-19T08:08:00.620Z,99868.33
2023-01-19T08:10:29.572Z,99876.17
2023-01-19T08:12:59.554Z,99874.35
2023-01-19T08:15:28.553Z,99871.67
2023-01-19T08:18:05.870Z,99868.36
2023-01-19T08:20:34.596Z,99859.71
2023-01-19T08:23:04.961Z,99850.05
2023-01-19T08:25:42.406Z,99850.83
2023-01-19T08:28:14.910Z,99848.17
2023-01-19T08:30:45.327Z,99849.63
2023-01-19T08:33:14.455Z,99840.64
2023-01-19T08:35:47.835Z,99839.16
2023-01-19T08:38:17.342Z,99835.25
2023-01-19T08:40:46.208Z,99819.77
2023-01-19T08:43:17.385Z,99821.27
2023-01-19T08:45:52.041Z,99827.43
2023-01-19T08:48:23.624Z,99825.20
2023-01-19T08:50:53.053Z,99813.47
2023-01-19T08:53:23.812Z,99815.39
2023-01-19T08:56:01.464Z,99807.73
2023-01-19T08:58:30.306Z,99810.57
2023-01-19T09:01:01.510Z,99815.03
2023-01-19T09:03:31.718Z,99818.41
2023-01-19T09:06:00.381Z,99824.27
2023-01-19T09:08:29.182Z,99827.18
2023-01-19T09:10:57.957Z,99831.38
2023-01-19T09:13:26.760Z,99828.58
2023-01-19T09:15:55.631Z,99834.02
2023-01-19T09:18:24.460Z,99825.02
2023-01-19T09:20:53.241Z,99838.40
2023-01-19T09:23:22.920Z,99835.40
2023-01-19T09:26:02.139Z,99831.64
2023-01-19T09:28:31.171Z,99828.52
2023-01-19T09:31:00.392Z,99819.73
2023-01-19T09:33:29.539Z,99810.77
2023-01-19T09:35:58.235Z,99814.68
2023-01-19T09:38:27.201Z,99807.29
2023-01-19T09:40:57.356Z,99809.41
2023-01-19T09:43:40.811Z,99804.46
2023-01-19T09:46:37.074Z,99804.38
2023-01-19T09:49:14.810Z,99807.59
2023-01-19T09:51:50.843Z,99810.77
2023-01-19T09:54:47.100Z,99809.52
2023-01-19T09:57:16.004Z,99811.95
2023-01-19T09:59:48.053Z,99814.69
2023-01-19T10:02:47.181Z,99809.27
2023-01-19T10:05:40.214Z,99807.27
2023-01-19T10:08:42.136Z,99816.51
2023-01-19T10:11:27.525Z,99821.91
2023-01-19T10:13:59.115Z,99817.02
2023-01-19T10:16:53.491Z,99810.71
2023-01-19T10:19:46.802Z,99816.73
2023-01-19T10:22:22.330Z,99819.64
2023-01-19T10:24:59.507Z,99819.42
2023-01-19T10:27:31.938Z,99812.10
2023-01-19T10:30:02.293Z,99811.30
2023-01-19T10:32:36.148Z,99815.91
2023-01-19T10:35:26.355Z,99817.96
2023-01-19T10:38:02.347Z,99806.98
2023-01-19T10:40:34.009Z,99812.88
2023-01-19T10:43:48.692Z,99811.92
2023-01-19T10:46:23.821Z,99813.82
2023-01-19T10:48:54.543Z,99813.73
2023-01-19T10:51:23.736Z,99816.41
2023-01-19T10:54:02.622Z,99814.14
2023-01-19T10:56:37.677Z,99808.93
2023-01-19T10:59:07.785Z,99805.40
2023-01-19T11:01:38.186Z,99803.65
2023-01-19T11:04:29.943Z,99794.88
2023-01-19T11:07:31.310Z,99789.55
2023-01-19T11:10:21.074Z,99786.24
2023-01-19T11:13:13.646Z,99784.51
2023-01-19T11:15:48.595Z,99789.26
2023-01-19T11:18:31.817Z,99782.30
2023-01-19T11:21:13.582Z,99777.02
2023-01-19T11:23:51.927Z,99778.33
2023-01-19T11:26:41.036Z,99774.83
2023-01-19T11:29:26.532Z,99773.39
2023-01-19T11:31:57.941Z,99777.08
2023-01-19T11:34:38.148Z,99774.36
2023-01-19T11:37:18.908Z,99775.27
2023-01-19T11:39:47.748Z,99774.73
2023-01-19T11:42:17.892Z,99776.18
2023-01-19T11:45:18.039Z,99773.21
2023-01-19T11:47:52.028Z,99772.23
2023-01-19T11:50:40.056Z,99773.29
2023-01-19T11:53:25.554Z,99774.18
2023-01-19T11:55:59.088Z,99773.06
2023-01-19T11:58:27.930Z,99769.38
2023-01-19T12:01:25.109Z,99768.98
2023-01-19T12:04:15.470Z,99769.45
2023-01-19T12:06:49.654Z,99768.70
2023-01-19T12:09:32.206Z,99770.36
2023-01-19T12:12:12.946Z,99767.94
2023-01-19T12:14:53.095Z,99767.29
2023-01-19T12:17:35.041Z,99768.07
2023-01-19T12:20:44.498Z,99767.53
2023-01-19T12:23:37.154Z,99772.88
2023-01-19T12:26:59.956Z,99773.45
2023-01-19T12:29:33.649Z,99780.05
2023-01-19T12:32:14.292Z,99775.91
2023-01-19T12:34:46.935Z,99775.27
2023-01-19T12:37:41.970Z,99773.09
2023-01-19T12:40:27.551Z,99770.02
2023-01-19T12:43:05.813Z,99768.23
2023-01-19T12:45:36.905Z,99763.82
2023-01-19T12:48:09.115Z,99758.25
2023-01-19T12:50:39.253Z,99760.17
2023-01-19T12:53:20.860Z,99760.41
2023-01-19T12:56:01.373Z,99765.13
2023-01-19T12:58:30.523Z,99759.08
2023-01-19T13:01:22.060Z,99773.10
2023-01-19T13:04:09.434Z,99773.95
2023-01-19T13:06:50.198Z,99771.16
2023-01-19T13:09:45.627Z,99770.30
2023-01-19T13:12:14.558Z,99774.12
2023-01-19T13:14:43.822Z,99775.77
2023-01-19T13:17:26.478Z,99773.32
2023-01-19T13:20:23.315Z,99776.33
2023-01-19T13:23:12.933Z,99780.23
2023-01-19T13:25:47.163Z,99785.58
2023-01-19T13:28:19.152Z,99784.27
2023-01-19T13:31:07.326Z,99782.40
2023-01-19T13:33:49.547Z,99784.90
2023-01-19T13:36:34.561Z,99790.02
2023-01-19T13:39:18.340Z,99796.34
2023-01-19T13:41:48.395Z,99793.56
2023-01-19T13:44:29.621Z,99799.86
2023-01-19T13:46:59.998Z,99797.34
2023-01-19T13:49:43.999Z,99795.14
2023-01-19T13:52:24.982Z,99791.13
2023-01-19T13:55:03.548Z,99794.44
2023-01-19T13:57:46.957Z,99793.59
2023-01-19T14:00:30.027Z,99796.11
2023-01-19T14:03:18.718Z,99798.77
2023-01-19T14:05:53.873Z,99802.64
2023-01-19T14:08:23.858Z,99800.61
2023-01-19T14:10:52.601Z,99794.82
2023-01-19T14:13:23.513Z,99794.50
2023-01-19T14:15:58.257Z,99793.18
2023-01-19T14:18:33.590Z,99799.14
2023-01-19T14:21:14.179Z,99810.38
2023-01-19T14:23:58.198Z,99816.59
2023-01-19T14:26:48.162Z,99821.08
2023-01-19T14:29:31.745Z,99820.09
2023-01-19T14:32:04.210Z,99816.09
2023-01-19T14:34:50.391Z,99815.64
2023-01-19T14:37:34.165Z,99819.34
2023-01-19T14:40:18.624Z,99817.96
2023-01-19T14:43:05.879Z,99821.63
2023-01-19T14:45:41.553Z,99832.13
2023-01-19T14:48:19.576Z,99842.63
2023-01-19T14:51:02.965Z,99853.20
2023-01-19T14:53:38.527Z,99861.60
2023-01-19T14:56:07.840Z,99863.94
2023-01-19T14:58:36.767Z,99859.92
2023-01-19T15:01:06.909Z,99859.21
2023-01-19T15:03:45.356Z,99857.34
2023-01-19T15:06:18.734Z,99854.62
2023-01-19T15:08:49.040Z,99850.67
2023-01-19T15:11:34.283Z,99855.35
2023-01-19T15:14:03.706Z,99856.73
2023-01-19T15:16:34.668Z,99852.88
2023-01-19T15:19:04.147Z,99848.38
2023-01-19T15:21:32.925Z,99843.65
2023-01-19T15:24:01.757Z,99842.80
2023-01-19T15:26:30.578Z,99848.24
2023-01-19T15:28:59.313Z,99853.94
2023-01-19T15:31:28.145Z,99849.09
2023-01-19T15:33:57.169Z,99849.62
2023-01-19T15:36:26.077Z,99854.00
2023-01-19T15:38:56.039Z,99855.88
2023-01-19T15:41:28.113Z,99853.23
2023-01-19T15:43:57.378Z,99853.31
2023-01-19T15:46:26.726Z,99855.27
2023-01-19T15:48:55.496Z,99853.57
2023-01-19T15:51:26.348Z,99848.61
2023-01-19T15:53:56.250Z,99848.64
2023-01-19T15:56:28.554Z,99850.59
2023-01-19T15:58:59.279Z,99852.02
2023-01-19T16:01:33.197Z,99852.90
2023-01-19T16:04:05.855Z,99855.22
2023-01-19T16:06:35.099Z,99850.04
2023-01-19T16:09:04.147Z,99858.70
2023-01-19T16:11:37.952Z,99864.98
2023-01-19T16:14:06.724Z,99856.41
2023-01-19T16:16:35.511Z,99863.97
2023-01-19T16:19:04.585Z,99861.40
2023-01-19T16:21:33.340Z,99865.08
2023-01-19T16:24:02.072Z,99855.73
2023-01-19T16:26:35.506Z,99856.71
2023-01-19T16:29:09.025Z,99863.86
2023-01-19T16:31:39.859Z,99869.89
2023-01-19T16:34:09.767Z,99871.20
2023-01-19T16:36:41.717Z,99869.95
2023-01-19T16:39:15.654Z,99865.64
2023-01-19T16:41:45.577Z,99875.91
2023-01-19T16:44:16.782Z,99876.73
2023-01-19T16:46:47.445Z,99881.70
2023-01-19T16:49:22.681Z,99880.85
2023-01-19T16:51:54.885Z,99886.82
2023-01-19T16:54:26.295Z,99890.00
2023-01-19T16:56:57.651Z,99888.77
2023-01-19T16:59:34.104Z,99890.41
2023-01-19T17:02:03.269Z,99890.90
2023-01-19T17:06:35.785Z,99892.91
2023-01-19T17:09:06.517Z,99893.60
2023-01-19T17:11:36.169Z,99897.23
2023-01-19T17:14:14.336Z,99894.66
2023-01-19T17:16:44.468Z,99896.60
2023-01-19T17:19:19.839Z,99899.15
2023-01-19T17:21:50.719Z,99897.39
2023-01-19T17:24:20.027Z,99896.02
2023-01-19T17:26:49.037Z,99899.00
2023-01-19T17:29:18.445Z,99893.83
2023-01-19T17:31:50.023Z,99907.69
2023-01-19T17:34:19.099Z,99906.90
2023-01-19T17:36:50.663Z,99912.63
2023-01-19T17:39:19.452Z,99916.45
2023-01-19T17:41:50.283Z,99903.70
2023-01-19T17:44:19.337Z,99915.06
2023-01-19T17:46:48.769Z,99910.57
2023-01-19T17:49:17.875Z,99905.59
2023-01-19T17:51:52.200Z,99909.86
2023-01-19T17:54:21.308Z,99912.77
2023-01-19T17:56:51.156Z,99917.09
2023-01-19T17:59:19.970Z,99912.23
2023-01-19T18:01:48.825Z,99910.15
2023-01-19T18:04:17.674Z,99917.40
2023-01-19T18:06:47.310Z,99914.25
2023-01-19T18:09:16.917Z,99906.02
2023-01-19T18:11:46.638Z,99919.98
2023-01-19T18:14:15.536Z,99919.30
2023-01-19T18:16:48.905Z,99917.35
2023-01-19T18:19:21.519Z,99917.88
2023-01-19T18:21:51.264Z,99924.02
2023-01-19T18:24:20.124Z,99934.40
2023-01-19T18:26:49.002Z,99933.65
2023-01-19T18:29:19.616Z,99928.09
2023-01-19T18:31:48.558Z,99931.17
2023-01-19T18:34:17.609Z,99937.49
2023-01-19T18:36:46.664Z,99932.16
2023-01-19T18:39:15.868Z,99933.68
2023-01-19T18:41:44.741Z,99934.55
2023-01-19T18:44:13.844Z,99937.11
2023-01-19T18:46:42.781Z,99937.11
2023-01-19T18:49:11.766Z,99933.42
2023-01-19T18:51:41.917Z,99937.42
2023-01-19T18:54:11.497Z,99945.48
2023-01-19T18:56:40.340Z,99950.14
2023-01-19T18:59:09.180Z,99954.00
2023-01-19T19:01:38.428Z,99961.29
2023-01-19T19:04:08.796Z,99970.16
2023-01-19T19:06:38.665Z,99971.12
2023-01-19T19:09:07.576Z,99966.10
2023-01-19T19:11:36.869Z,99961.77
2023-01-19T19:14:06.635Z,99963.45
2023-01-19T19:16:37.463Z,99964.52
2023-01-19T19:19:08.661Z,99975.98
2023-01-19T19:21:37.660Z,99979.23
2023-01-19T19:24:06.860Z,99987.08
2023-01-19T19:26:36.567Z,99993.70
2023-01-19T19:29:05.590Z,99997.23
2023-01-19T19:31:34.510Z,99999.21
2023-01-19T19:34:03.342Z,100004.45
2023-01-19T19:36:33.783Z,100003.88
2023-01-19T19:39:02.664Z,100004.73
2023-01-19T19:41:35.136Z,100008.45
2023-01-19T19:44:04.364Z,100018.24
2023-01-19T19:46:33.146Z,100026.21
2023-01-19T19:49:02.032Z,100015.86
2023-01-19T19:51:31.107Z,100018.25
2023-01-19T19:54:01.678Z,100026.61
2023-01-19T19:56:34.277Z,100032.23
2023-01-19T19:59:04.099Z,100033.56
2023-01-19T20:01:34.074Z,100032.23
2023-01-19T20:04:13.459Z,100027.83
2023-01-19T20:06:44.973Z,100024.73
2023-01-19T20:09:16.060Z,100028.52
2023-01-19T20:11:46.943Z,100045.66
2023-01-19T20:14:16.576Z,100048.62
2023-01-19T20:16:45.622Z,100050.62
2023-01-19T20:19:14.427Z,100066.69
2023-01-19T20:21:43.727Z,100088.09
2023-01-19T20:24:19.297Z,100094.77
2023-01-19T20:26:53.187Z,100117.30
2023-01-19T20:29:28.072Z,100133.70
2023-01-19T20:31:58.567Z,100127.66
2023-01-19T20:34:33.516Z,100129.58
2023-01-19T20:37:04.868Z,100131.25
2023-01-19T20:39:35.627Z,100138.75
2023-01-19T20:42:05.994Z,100145.57
2023-01-19T20:44:34.794Z,100152.77
2023-01-19T20:47:06.510Z,100152.99
2023-01-19T20:49:36.893Z,100154.51
2023-01-19T20:52:05.740Z,100162.23
2023-01-19T20:54:35.367Z,100162.59
2023-01-19T20:57:04.296Z,100162.95
2023-01-19T20:59:34.476Z,100166.05
2023-01-19T21:02:06.316Z,100161.02
2023-01-19T21:04:35.229Z,100157.92
2023-01-19T21:07:04.949Z,100161.05
2023-01-19T21:09:33.821Z,100166.71
2023-01-19T21:12:02.839Z,100166.71
2023-01-19T21:14:31.810Z,100165.53
2023-01-19T21:17:00.705Z,100172.02
2023-01-19T21:19:29.813Z,100172.13
2023-01-19T21:21:58.892Z,100185.88
2023-01-19T21:24:29.528Z,100187.80
2023-01-19T21:26:58.434Z,100185.95
2023-01-19T21:29:27.515Z,100182.91
2023-01-19T21:31:56.397Z,100179.73
2023-01-19T21:34:25.310Z,100181.13
2023-01-19T21:36:54.237Z,100181.62
2023-01-19T21:39:23.196Z,100182.52
2023-01-19T21:41:52.024Z,100182.67
2023-01-19T21:44:21.020Z,100185.57
2023-01-19T21:46:49.880Z,100186.76
2023-01-19T21:49:20.367Z,100186.16
2023-01-19T21:51:52.859Z,100185.36
2023-01-19T21:54:21.589Z,100191.11
2023-01-19T21:56:50.342Z,100190.38
2023-01-19T21:59:20.439Z,100182.91
2023-01-19T22:01:49.597Z,100176.27
2023-01-19T22:04:18.516Z,100181.55
2023-01-19T22:06:47.597Z,100181.77
2023-01-19T22:09:16.446Z,100179.92
2023-01-19T22:11:45.212Z,100187.23
2023-01-19T22:14:13.930Z,100188.55
2023-01-19T22:16:42.905Z,100183.85
2023-01-19T22:19:13.239Z,100188.52
2023-01-19T22:21:42.650Z,100185.83
2023-01-19T22:24:13.031Z,100181.80
2023-01-19T22:26:41.868Z,100185.63
2023-01-19T22:29:12.086Z,100189.52
2023-01-19T22:31:41.164Z,100190.60
2023-01-19T22:34:11.155Z,100195.52
2023-01-19T22:36:40.007Z,100204.98
2023-01-19T22:39:11.932Z,100213.31
2023-01-19T22:41:45.066Z,100213.02
2023-01-19T22:44:16.189Z,100215.67
2023-01-19T22:46:44.966Z,100216.11
2023-01-19T22:49:16.931Z,100215.07
2023-01-19T22:51:45.941Z,100206.84
2023-01-19T22:54:14.955Z,100201.40
2023-01-19T22:56:46.403Z,100199.91
2023-01-19T22:59:15.513Z,100197.14
2023-01-19T23:01:44.682Z,100199.27
2023-01-19T23:04:16.121Z,100200.44
2023-01-19T23:06:49.520Z,100199.54
2023-01-19T23:09:18.825Z,100195.91
2023-01-19T23:11:53.137Z,100199.77
2023-01-19T23:14:22.885Z,100202.55
2023-01-19T23:16:52.225Z,100201.80
2023-01-19T23:19:21.358Z,100196.23
2023-01-19T23:21:53.826Z,100191.64
2023-01-19T23:24:22.620Z,100183.90
2023-01-19T23:26:51.931Z,100182.18
2023-01-19T23:29:20.920Z,100181.50
2023-01-19T23:31:50.825Z,100186.70
2023-01-19T23:34:19.713Z,100186.33
2023-01-19T23:36:49.002Z,100186.14
2023-01-19T23:39:22.763Z,100180.77
2023-01-19T23:41:51.615Z,100180.07
2023-01-19T23:44:20.815Z,100179.85
2023-01-19T23:46:49.697Z,100180.32
2023-01-19T23:49:18.800Z,100189.77
2023-01-19T23:51:47.792Z,100192.55
2023-01-19T23:54:17.107Z,100196.49
2023-01-19T23:56:45.974Z,100189.05
2023-01-19T23:59:16.746Z,100184.85
